createdAt,value
2023-04-15T00:01:14.494Z,0
2023-04-15T00:05:17.602Z,0
2023-04-15T00:07:18.964Z,0
2023-04-15T00:11:21.419Z,0
2023-04-15T00:15:24.667Z,0
2023-04-15T00:17:25.841Z,0
2023-04-15T00:21:28.528Z,0
2023-04-15T00:23:29.725Z,0
2023-04-15T00:25:31.612Z,0
2023-04-15T00:27:32.658Z,0
2023-04-15T00:33:36.785Z,0
2023-04-15T00:35:37.830Z,0
2023-04-15T00:39:40.613Z,0
2023-04-15T00:43:44.427Z,0
2023-04-15T00:49:48.238Z,0
2023-04-15T00:53:50.853Z,0
2023-04-15T00:59:55.728Z,0
2023-04-15T01:03:58.982Z,0
2023-04-15T01:06:02.940Z,0
2023-04-15T01:10:03.428Z,0
2023-04-15T01:16:08.490Z,0
2023-04-15T01:22:13.952Z,0
2023-04-15T01:26:17.587Z,0
2023-04-15T01:32:22.107Z,0
2023-04-15T01:36:24.944Z,0
2023-04-15T01:38:26.854Z,0
2023-04-15T01:42:29.180Z,0
2023-04-15T01:46:32.237Z,0
2023-04-15T01:48:33.873Z,0
2023-04-15T01:52:37.088Z,0
2023-04-15T01:58:41.248Z,0
2023-04-15T02:04:45.406Z,0
2023-04-15T02:08:47.674Z,0
2023-04-15T02:14:52.137Z,0
2023-04-15T02:18:55.393Z,0
2023-04-15T02:20:56.431Z,0
2023-04-15T02:24:58.870Z,0
2023-04-15T02:29:01.342Z,0
2023-04-15T02:31:03.073Z,0
2023-04-15T02:35:05.346Z,0
2023-04-15T02:41:10.144Z,0
2023-04-15T02:45:13.113Z,0
2023-04-15T02:47:14.960Z,0
2023-04-15T02:51:17.897Z,0
2023-04-15T02:57:22.663Z,0
2023-04-15T03:01:25.487Z,2.948
2023-04-15T03:03:27.431Z,0.702
2023-04-15T03:07:30.432Z,0
2023-04-15T03:11:34.339Z,0.982
2023-04-15T03:13:34.722Z,0.561
2023-04-15T03:17:37.563Z,0.28
2023-04-15T03:21:40.151Z,0.14
2023-04-15T03:23:41.289Z,0
2023-04-15T03:27:43.762Z,0
2023-04-15T03:29:45.641Z,0
2023-04-15T03:31:46.962Z,0
2023-04-15T03:33:48.156Z,0
2023-04-15T03:39:53.315Z,0
2023-04-15T03:41:54.692Z,0
2023-04-15T03:45:58.691Z,0
2023-04-15T03:50:01.102Z,0
2023-04-15T03:56:04.783Z,0
2023-04-15T04:00:07.837Z,0
2023-04-15T04:06:12.310Z,0
2023-04-15T04:10:15.174Z,0
2023-04-15T04:12:16.702Z,0
2023-04-15T04:16:20.711Z,0
2023-04-15T04:23:09.251Z,0
2023-04-15T04:27:12.116Z,0
2023-04-15T04:33:16.862Z,0
2023-04-15T04:37:19.868Z,0
2023-04-15T04:39:21.020Z,0
2023-04-15T04:43:23.911Z,0
2023-04-15T04:47:26.809Z,0
2023-04-15T04:49:27.864Z,0
2023-04-15T04:53:30.475Z,0
2023-04-15T04:59:35.390Z,0
2023-04-15T05:03:38.591Z,0
2023-04-15T05:05:39.717Z,0
2023-04-15T05:09:42.293Z,0
2023-04-15T05:15:46.569Z,0
2023-04-15T05:19:49.858Z,0
2023-04-15T05:21:50.954Z,0
2023-04-15T05:25:53.430Z,0
2023-04-15T05:29:56.439Z,0
2023-04-15T05:31:57.865Z,0
2023-04-15T05:36:00.649Z,0
2023-04-15T05:42:06.023Z,0
2023-04-15T05:46:09.017Z,0
2023-04-15T05:48:09.956Z,0
2023-04-15T05:52:13.765Z,0
2023-04-15T05:58:18.068Z,0
2023-04-15T06:04:23.069Z,0
2023-04-15T06:08:25.992Z,0
2023-04-15T06:12:28.498Z,0
2023-04-15T06:14:30.332Z,0
2023-04-15T06:18:33.216Z,0
2023-04-15T06:22:36.340Z,0
2023-04-15T06:24:37.349Z,0
2023-04-15T06:28:40.282Z,0
2023-04-15T06:30:41.984Z,0
2023-04-15T06:32:43.297Z,0
2023-04-15T06:34:44.776Z,0
2023-04-15T06:40:50.182Z,0
2023-04-15T06:42:51.653Z,0
2023-04-15T06:46:54.486Z,0
2023-04-15T06:50:57.294Z,0
2023-04-15T06:57:01.302Z,0.982
2023-04-15T07:01:04.562Z,0
2023-04-15T07:03:05.531Z,0
2023-04-15T07:07:07.907Z,0
2023-04-15T07:11:10.493Z,0.702
2023-04-15T07:13:11.804Z,0.14
2023-04-15T07:17:14.474Z,0
2023-04-15T07:23:19.043Z,0
2023-04-15T07:27:22.206Z,0
2023-04-15T07:29:23.888Z,0
2023-04-15T07:33:26.603Z,0
2023-04-15T07:39:29.907Z,0.421
2023-04-15T07:43:32.486Z,0
2023-04-15T07:45:33.690Z,1.404
2023-04-15T07:49:36.513Z,0
2023-04-15T07:53:39.268Z,0
2023-04-15T07:55:40.161Z,0
2023-04-15T07:59:43.715Z,0.982
2023-04-15T08:05:48.100Z,1.404
2023-04-15T08:09:50.781Z,0
2023-04-15T08:11:52.273Z,1.544
2023-04-15T08:15:54.625Z,0
2023-04-15T08:21:59.286Z,0
2023-04-15T08:28:02.526Z,1.544
2023-04-15T08:32:05.498Z,1.404
2023-04-15T08:36:08.415Z,2.808
2023-04-15T08:38:10.098Z,1.404
2023-04-15T08:42:12.249Z,3.229
2023-04-15T08:46:14.576Z,1.684
2023-04-15T08:48:16.200Z,3.65
2023-04-15T08:52:19.202Z,4.212
2023-04-15T08:54:20.550Z,3.65
2023-04-15T08:56:22.242Z,4.071
2023-04-15T08:58:23.947Z,3.369
2023-04-15T09:04:27.803Z,0.702
2023-04-15T09:06:29.619Z,6.739
2023-04-15T09:10:33.569Z,1.404
2023-04-15T09:14:36.842Z,3.931
2023-04-15T09:20:40.052Z,3.51
2023-04-15T09:24:42.401Z,7.16
2023-04-15T09:26:43.361Z,4.212
2023-04-15T09:30:48.139Z,3.79
2023-04-15T09:34:50.928Z,6.037
2023-04-15T09:36:52.667Z,4.212
2023-04-15T09:40:55.152Z,4.914
2023-04-15T09:46:58.757Z,4.914
2023-04-15T09:53:02.640Z,1.684
2023-04-15T09:57:05.636Z,6.739
2023-04-15T10:03:08.874Z,3.65
2023-04-15T10:07:12.413Z,1.544
2023-04-15T10:09:14.766Z,3.229
2023-04-15T10:13:17.368Z,1.684
2023-04-15T10:17:20.909Z,2.808
2023-04-15T10:19:22.366Z,0.842
2023-04-15T10:23:25.186Z,6.177
2023-04-15T10:29:30.317Z,2.246
2023-04-15T10:33:32.708Z,0.702
2023-04-15T10:35:34.085Z,6.739
2023-04-15T10:39:37.141Z,8.283
2023-04-15T10:45:41.310Z,7.862
2023-04-15T10:49:44.215Z,7.16
2023-04-15T10:51:45.918Z,4.352
2023-04-15T10:55:48.098Z,7.722
2023-04-15T10:59:51.032Z,3.79
2023-04-15T11:01:52.722Z,9.266
2023-04-15T11:05:55.862Z,3.088
2023-04-15T11:06:39.639Z,7.02
2023-04-15T11:10:43.074Z,5.756
2023-04-15T11:12:44.569Z,4.633
2023-04-15T11:16:46.907Z,2.527
2023-04-15T11:22:51.414Z,1.684
2023-04-15T11:26:54.164Z,2.948
2023-04-15T11:28:55.862Z,3.65
2023-04-15T11:32:58.739Z,2.667
2023-04-15T11:37:01.642Z,0.421
2023-04-15T11:39:02.804Z,1.965
2023-04-15T11:43:05.668Z,4.071
2023-04-15T11:49:09.187Z,4.352
2023-04-15T11:53:11.884Z,1.123
2023-04-15T11:55:12.741Z,0.28
2023-04-15T11:59:16.258Z,5.194
2023-04-15T12:05:20.887Z,3.65
2023-04-15T12:11:24.392Z,3.51
2023-04-15T12:15:27.335Z,1.684
2023-04-15T12:21:31.333Z,7.441
2023-04-15T12:25:34.033Z,3.51
2023-04-15T12:27:35.056Z,4.352
2023-04-15T12:31:37.849Z,4.212
2023-04-15T12:35:40.735Z,3.229
2023-04-15T12:37:41.933Z,1.684
2023-04-15T12:41:44.496Z,5.054
2023-04-15T12:47:48.397Z,0.982
2023-04-15T12:51:50.624Z,2.386
2023-04-15T12:53:51.617Z,1.544
2023-04-15T12:57:54.243Z,3.229
2023-04-15T13:03:57.913Z,5.475
2023-04-15T13:08:01.089Z,1.263
2023-04-15T13:10:02.337Z,2.948
2023-04-15T13:14:05.508Z,2.246
2023-04-15T13:18:07.851Z,2.667
2023-04-15T13:20:09.393Z,1.263
2023-04-15T13:24:11.501Z,2.808
2023-04-15T13:28:13.546Z,3.79
2023-04-15T13:30:15.239Z,1.263
2023-04-15T13:34:17.558Z,2.527
2023-04-15T13:36:19.085Z,0.982
2023-04-15T13:38:20.399Z,3.51
2023-04-15T13:40:21.757Z,0.28
2023-04-15T13:46:26.186Z,0
2023-04-15T13:48:27.212Z,0.421
2023-04-15T13:52:29.969Z,3.65
2023-04-15T13:56:33.429Z,0.561
2023-04-15T14:02:37.833Z,1.404
2023-04-15T14:06:40.066Z,0
2023-04-15T14:08:41.977Z,1.544
2023-04-15T14:12:45.265Z,2.808
2023-04-15T14:16:47.374Z,0
2023-04-15T14:18:48.455Z,1.684
2023-04-15T14:22:51.096Z,2.106
2023-04-15T14:28:55.808Z,0
2023-04-15T14:35:00.197Z,1.123
2023-04-15T14:39:02.818Z,1.263
2023-04-15T14:41:04.083Z,4.352
2023-04-15T14:45:06.299Z,0.702
2023-04-15T14:49:08.690Z,2.106
2023-04-15T14:51:10.186Z,2.386
2023-04-15T14:55:13.299Z,0.14
2023-04-15T15:01:18.165Z,0.702
2023-04-15T15:05:21.280Z,0
2023-04-15T15:07:22.151Z,1.404
2023-04-15T15:11:24.847Z,1.404
2023-04-15T15:17:30.164Z,0.982
2023-04-15T15:23:34.834Z,0.28
2023-04-15T15:27:38.364Z,3.51
2023-04-15T15:33:42.196Z,0
2023-04-15T15:37:45.128Z,0
2023-04-15T15:41:47.538Z,0
2023-04-15T15:43:48.912Z,1.825
2023-04-15T15:47:51.691Z,0
2023-04-15T15:49:53.065Z,1.965
2023-04-15T15:51:54.934Z,0
2023-04-15T15:53:56.428Z,2.527
2023-04-15T16:00:10.946Z,3.65
2023-04-15T16:06:04.800Z,2.106
2023-04-15T16:10:08.484Z,3.51
2023-04-15T16:16:12.373Z,3.229
2023-04-15T16:20:15.848Z,0.28
2023-04-15T16:22:16.799Z,0.982
2023-04-15T16:26:20.430Z,0.561
2023-04-15T16:30:22.989Z,1.404
2023-04-15T16:32:24.714Z,0.702
2023-04-15T16:36:28.031Z,0
2023-04-15T16:42:32.271Z,0.842
2023-04-15T16:46:34.872Z,0
2023-04-15T16:48:35.899Z,0.842
2023-04-15T16:52:38.519Z,0.842
2023-04-15T16:58:42.011Z,2.808
2023-04-15T17:02:45.491Z,0
2023-04-15T17:04:46.831Z,0
2023-04-15T17:08:50.534Z,0.421
2023-04-15T17:12:53.411Z,0.14
2023-04-15T17:15:03.059Z,0
2023-04-15T17:18:57.923Z,0.982
2023-04-15T17:25:02.379Z,0
2023-04-15T17:29:06.194Z,1.123
2023-04-15T17:31:07.363Z,0
2023-04-15T17:35:10.189Z,0
2023-04-15T17:41:14.778Z,0
2023-04-15T17:45:17.420Z,0.28
2023-04-15T17:47:27.085Z,0
2023-04-15T17:51:21.664Z,0.28
2023-04-15T17:52:05.487Z,0
2023-04-15T17:56:08.670Z,0
2023-04-15T18:00:11.474Z,0
2023-04-15T18:02:13.425Z,0.561
2023-04-15T18:06:15.966Z,0
2023-04-15T18:08:17.078Z,0
2023-04-15T18:10:18.562Z,0
2023-04-15T18:12:20.000Z,0.14
2023-04-15T18:18:23.438Z,0.28
2023-04-15T18:20:24.504Z,0
2023-04-15T18:24:28.273Z,0
2023-04-15T18:28:30.805Z,0
2023-04-15T18:34:34.697Z,0
2023-04-15T18:38:38.057Z,0
2023-04-15T18:40:39.219Z,0
2023-04-15T18:44:41.985Z,0
2023-04-15T18:48:44.828Z,0
2023-04-15T18:50:46.313Z,0
2023-04-15T18:54:59.093Z,0
2023-04-15T19:00:52.978Z,0
2023-04-15T19:06:57.746Z,0
2023-04-15T19:11:01.524Z,0
2023-04-15T19:17:06.396Z,0
2023-04-15T19:21:09.000Z,0
2023-04-15T19:23:10.491Z,0
2023-04-15T19:27:13.111Z,0
2023-04-15T19:31:15.814Z,0
2023-04-15T19:33:17.405Z,0
2023-04-15T19:37:20.748Z,0
2023-04-15T19:43:25.592Z,0
2023-04-15T19:47:28.488Z,0
2023-04-15T19:49:29.466Z,0
2023-04-15T19:53:32.057Z,0
2023-04-15T19:59:36.960Z,0
2023-04-15T20:03:40.082Z,0
2023-04-15T20:05:40.924Z,0
2023-04-15T20:09:43.921Z,0
2023-04-15T20:13:46.278Z,0
2023-04-15T20:15:48.277Z,0
2023-04-15T20:19:50.755Z,0
2023-04-15T20:25:54.582Z,0
2023-04-15T20:29:57.135Z,0
2023-04-15T20:31:58.520Z,0
2023-04-15T20:36:00.892Z,0
2023-04-15T20:42:04.505Z,0
2023-04-15T20:48:08.990Z,0
2023-04-15T20:52:11.869Z,0
2023-04-15T20:58:16.501Z,0
2023-04-15T21:02:19.902Z,0
2023-04-15T21:08:23.714Z,0
2023-04-15T21:12:26.417Z,0
2023-04-15T21:14:27.472Z,0
2023-04-15T21:18:29.752Z,0
2023-04-15T21:24:34.264Z,0
2023-04-15T21:28:37.013Z,0
2023-04-15T21:30:38.345Z,0
2023-04-15T21:34:41.169Z,0
2023-04-15T21:40:45.815Z,0
2023-04-15T21:44:48.771Z,0
2023-04-15T21:46:50.250Z,0
2023-04-15T21:50:53.323Z,0
2023-04-15T21:54:55.462Z,0
2023-04-15T21:56:57.286Z,0
2023-04-15T22:01:00.619Z,0
2023-04-15T22:07:05.205Z,0
2023-04-15T22:13:10.014Z,0
2023-04-15T22:17:12.904Z,0
2023-04-15T22:23:17.704Z,0
2023-04-15T22:27:20.818Z,0
2023-04-15T22:29:22.750Z,0
2023-04-15T22:33:25.878Z,0
2023-04-15T22:37:28.722Z,0
2023-04-15T22:39:29.789Z,0
2023-04-15T22:41:41.423Z,0
2023-04-15T22:43:33.230Z,0
2023-04-15T22:49:37.823Z,0
2023-04-15T22:53:41.074Z,0
2023-04-15T22:55:42.084Z,0
2023-04-15T22:59:44.495Z,0
2023-04-15T23:05:48.922Z,0
2023-04-15T23:09:51.906Z,0
2023-04-15T23:11:53.805Z,0
2023-04-15T23:15:56.148Z,0
2023-04-15T23:19:59.153Z,0
2023-04-15T23:22:00.741Z,0
2023-04-15T23:26:03.042Z,0
2023-04-15T23:28:04.647Z,0
2023-04-15T23:32:08.112Z,0
2023-04-15T23:36:11.629Z,0
2023-04-15T23:38:13.121Z,0
2023-04-15T23:40:14.070Z,0
2023-04-15T23:42:15.674Z,0
2023-04-15T23:48:20.257Z,0
2023-04-15T23:54:24.699Z,0
2023-04-15T23:58:27.273Z,0
